createdAt,value
2018-05-25T00:02:02.981Z,98654
2018-05-25T00:04:31.116Z,98662
2018-05-25T00:06:58.083Z,98671
2018-05-25T00:09:25.119Z,98674
2018-05-25T00:11:52.148Z,98665
2018-05-25T00:14:19.127Z,98665
2018-05-25T00:16:46.853Z,98665
2018-05-25T00:19:13.881Z,98663
2018-05-25T00:21:40.918Z,98663
2018-05-25T00:24:07.990Z,98661
2018-05-25T00:26:34.975Z,98659
2018-05-25T00:29:02.719Z,98656
2018-05-25T00:31:29.735Z,98659
2018-05-25T00:33:56.749Z,98661
2018-05-25T00:36:24.476Z,98656
2018-05-25T00:38:51.449Z,98653
2018-05-25T00:41:18.430Z,98654
2018-05-25T00:43:45.400Z,98648
2018-05-25T00:46:12.404Z,98653
2018-05-25T00:48:39.428Z,98651
2018-05-25T00:51:06.470Z,98653
2018-05-25T00:53:33.430Z,98653
2018-05-25T00:56:01.151Z,98650
2018-05-25T00:58:28.202Z,98653
2018-05-25T01:00:55.211Z,98652
2018-05-25T01:03:22.223Z,98650
2018-05-25T01:05:49.211Z,98654
2018-05-25T01:08:16.216Z,98652
2018-05-25T01:10:43.197Z,98648
2018-05-25T01:13:10.199Z,98646
2018-05-25T01:15:37.166Z,98649
2018-05-25T01:18:04.968Z,98646
2018-05-25T01:20:31.959Z,98646
2018-05-25T01:22:58.971Z,98643
2018-05-25T01:25:25.963Z,98654
2018-05-25T01:27:52.942Z,98653
2018-05-25T01:30:19.946Z,98647
2018-05-25T01:32:46.951Z,98655
2018-05-25T01:35:13.968Z,98656
2018-05-25T01:37:40.991Z,98651
2018-05-25T01:40:08.017Z,98650
2018-05-25T01:42:35.051Z,98641
2018-05-25T01:45:02.046Z,98644
2018-05-25T01:47:29.833Z,98641
2018-05-25T01:49:56.788Z,98646
2018-05-25T01:52:23.741Z,98640
2018-05-25T01:54:50.731Z,98641
2018-05-25T01:57:17.701Z,98642
2018-05-25T01:59:45.413Z,98642
2018-05-25T02:02:12.404Z,98645
2018-05-25T02:04:40.126Z,98643
2018-05-25T02:07:07.123Z,98641
2018-05-25T02:09:34.841Z,98635
2018-05-25T02:12:01.853Z,98634
2018-05-25T02:14:28.866Z,98634
2018-05-25T02:16:56.621Z,98633
2018-05-25T02:19:23.603Z,98633
2018-05-25T02:21:50.587Z,98630
2018-05-25T02:24:17.579Z,98634
2018-05-25T02:26:45.398Z,98637
2018-05-25T02:29:12.414Z,98633
2018-05-25T02:31:39.372Z,98632
2018-05-25T02:34:06.377Z,98628
2018-05-25T02:36:33.397Z,98627
2018-05-25T02:39:00.391Z,98630
2018-05-25T02:41:27.384Z,98632
2018-05-25T02:43:54.366Z,98627
2018-05-25T02:46:22.116Z,98622
2018-05-25T02:48:49.067Z,98619
2018-05-25T02:51:16.807Z,98618
2018-05-25T02:53:43.767Z,98618
2018-05-25T02:56:10.759Z,98623
2018-05-25T02:58:37.747Z,98622
2018-05-25T03:01:04.719Z,98623
2018-05-25T03:03:32.484Z,98622
2018-05-25T03:06:00.219Z,98621
2018-05-25T03:08:27.235Z,98620
2018-05-25T03:10:54.256Z,98620
2018-05-25T03:13:21.989Z,98624
2018-05-25T03:15:48.996Z,98626
2018-05-25T03:18:15.964Z,98622
2018-05-25T03:20:42.934Z,98630
2018-05-25T03:23:09.883Z,98633
2018-05-25T03:25:36.888Z,98632
2018-05-25T03:28:03.908Z,98637
2018-05-25T03:30:30.993Z,98634
2018-05-25T03:32:57.993Z,98635
2018-05-25T03:35:25.725Z,98635
2018-05-25T03:37:52.741Z,98633
2018-05-25T03:40:19.738Z,98632
2018-05-25T03:42:47.456Z,98631
2018-05-25T03:45:14.438Z,98635
2018-05-25T03:47:41.439Z,98639
2018-05-25T03:50:08.446Z,98637
2018-05-25T03:52:36.202Z,98644
2018-05-25T03:55:03.963Z,98643
2018-05-25T03:57:30.985Z,98648
2018-05-25T04:00:16.311Z,98644
2018-05-25T04:02:44.958Z,98642
2018-05-25T04:05:12.454Z,98642
2018-05-25T04:07:43.257Z,98641
2018-05-25T04:10:10.252Z,98643
2018-05-25T04:12:37.246Z,98643
2018-05-25T04:15:04.234Z,98640
2018-05-25T04:17:31.197Z,98641
2018-05-25T04:19:58.204Z,98647
2018-05-25T04:22:25.941Z,98644
2018-05-25T04:24:52.911Z,98642
2018-05-25T04:27:20.656Z,98639
2018-05-25T04:29:47.649Z,98633
2018-05-25T04:32:14.670Z,98637
2018-05-25T04:34:42.399Z,98641
2018-05-25T04:37:09.492Z,98648
2018-05-25T04:39:37.201Z,98647
2018-05-25T04:42:04.194Z,98647
2018-05-25T04:44:31.940Z,98649
2018-05-25T04:46:58.984Z,98645
2018-05-25T04:49:26.036Z,98637
2018-05-25T04:51:53.030Z,98643
2018-05-25T04:54:20.101Z,98640
2018-05-25T04:56:47.064Z,98640
2018-05-25T04:59:14.047Z,98641
2018-05-25T05:01:41.823Z,98644
2018-05-25T05:04:08.830Z,98643
2018-05-25T05:06:35.852Z,98643
2018-05-25T05:09:03.146Z,98647
2018-05-25T05:11:30.911Z,98640
2018-05-25T05:13:58.643Z,98641
2018-05-25T05:16:25.627Z,98639
2018-05-25T05:18:53.364Z,98638
2018-05-25T05:21:20.437Z,98637
2018-05-25T05:23:48.209Z,98634
2018-05-25T05:26:16.065Z,98635
2018-05-25T05:28:43.875Z,98627
2018-05-25T05:31:10.884Z,98629
2018-05-25T05:33:38.641Z,98629
2018-05-25T05:36:06.392Z,98632
2018-05-25T05:38:33.379Z,98637
2018-05-25T05:41:06.424Z,98640
2018-05-25T05:43:33.451Z,98637
2018-05-25T05:46:00.466Z,98638
2018-05-25T05:48:27.477Z,98635
2018-05-25T05:50:54.519Z,98639
2018-05-25T05:53:22.313Z,98638
2018-05-25T05:55:49.333Z,98638
2018-05-25T05:58:16.342Z,98642
2018-05-25T06:00:49.267Z,98638
2018-05-25T06:03:16.324Z,98639
2018-05-25T06:05:44.094Z,98639
2018-05-25T06:08:11.882Z,98641
2018-05-25T06:10:38.894Z,98644
2018-05-25T06:13:05.974Z,98653
2018-05-25T06:15:32.954Z,98651
2018-05-25T06:18:05.794Z,98653
2018-05-25T06:20:33.539Z,98652
2018-05-25T06:23:00.564Z,98649
2018-05-25T06:25:27.632Z,98647
2018-05-25T06:27:55.382Z,98648
2018-05-25T06:30:22.404Z,98653
2018-05-25T06:32:49.488Z,98650
2018-05-25T06:35:17.284Z,98652
2018-05-25T06:37:44.327Z,98661
2018-05-25T06:40:11.339Z,98654
2018-05-25T06:42:38.339Z,98653
2018-05-25T06:45:05.329Z,98650
2018-05-25T06:47:32.343Z,98655
2018-05-25T06:49:59.416Z,98651
2018-05-25T06:52:26.394Z,98650
2018-05-25T06:54:54.264Z,98644
2018-05-25T06:57:21.302Z,98650
2018-05-25T06:59:49.151Z,98650
2018-05-25T07:02:16.116Z,98649
2018-05-25T07:04:43.859Z,98651
2018-05-25T07:07:10.796Z,98647
2018-05-25T07:09:37.824Z,98648
2018-05-25T07:12:04.842Z,98640
2018-05-25T07:14:31.844Z,98638
2018-05-25T07:16:58.927Z,98638
2018-05-25T07:19:25.940Z,98638
2018-05-25T07:21:52.911Z,98633
2018-05-25T07:24:20.640Z,98632
2018-05-25T07:26:47.649Z,98629
2018-05-25T07:29:14.659Z,98629
2018-05-25T07:31:41.631Z,98628
2018-05-25T07:34:08.627Z,98630
2018-05-25T07:36:35.627Z,98627
2018-05-25T07:39:02.810Z,98625
2018-05-25T07:41:29.844Z,98623
2018-05-25T07:43:56.857Z,98625
2018-05-25T07:46:24.564Z,98626
2018-05-25T07:48:51.552Z,98623
2018-05-25T07:51:19.299Z,98623
2018-05-25T07:53:46.292Z,98619
2018-05-25T07:56:13.255Z,98621
2018-05-25T07:58:40.337Z,98616
2018-05-25T08:01:07.533Z,98620
2018-05-25T08:03:34.534Z,98611
2018-05-25T08:06:01.554Z,98617
2018-05-25T08:08:28.575Z,98619
2018-05-25T08:10:55.677Z,98613
2018-05-25T08:13:22.698Z,98610
2018-05-25T08:15:49.687Z,98610
2018-05-25T08:18:17.042Z,98608
2018-05-25T08:20:44.784Z,98614
2018-05-25T08:23:11.799Z,98616
2018-05-25T08:25:44.829Z,98618
2018-05-25T08:28:11.879Z,98615
2018-05-25T08:30:38.911Z,98614
2018-05-25T08:33:05.912Z,98617
2018-05-25T08:35:39.707Z,98619
2018-05-25T08:38:07.464Z,98617
2018-05-25T08:40:34.486Z,98615
2018-05-25T08:43:01.449Z,98615
2018-05-25T08:45:28.431Z,98616
2018-05-25T08:47:56.164Z,98614
2018-05-25T08:50:23.157Z,98617
2018-05-25T08:52:50.196Z,98622
2018-05-25T08:55:17.208Z,98619
2018-05-25T08:57:44.235Z,98617
2018-05-25T09:00:11.251Z,98608
2018-05-25T09:02:39.238Z,98600
2018-05-25T09:05:06.594Z,98604
2018-05-25T09:07:33.625Z,98600
2018-05-25T09:10:00.674Z,98603
2018-05-25T09:12:27.761Z,98605
2018-05-25T09:14:54.752Z,98602
2018-05-25T09:17:21.836Z,98602
2018-05-25T09:19:48.833Z,98601
2018-05-25T09:22:16.580Z,98598
2018-05-25T09:24:44.302Z,98599
2018-05-25T09:27:11.295Z,98600
2018-05-25T09:29:38.291Z,98592
2018-05-25T09:32:05.286Z,98585
2018-05-25T09:34:32.309Z,98588
2018-05-25T09:36:59.291Z,98585
2018-05-25T09:39:26.282Z,98584
2018-05-25T09:41:53.273Z,98588
2018-05-25T09:44:20.281Z,98589
2018-05-25T09:46:47.316Z,98591
2018-05-25T09:49:14.328Z,98586
2018-05-25T09:51:41.324Z,98589
2018-05-25T09:54:08.313Z,98587
2018-05-25T09:56:36.274Z,98592
2018-05-25T09:59:03.286Z,98582
2018-05-25T10:01:30.311Z,98587
2018-05-25T10:03:57.323Z,98589
2018-05-25T10:06:25.070Z,98587
2018-05-25T10:08:52.076Z,98578
2018-05-25T10:11:19.044Z,98580
2018-05-25T10:13:46.113Z,98581
2018-05-25T10:16:13.094Z,98589
2018-05-25T10:18:40.131Z,98581
2018-05-25T10:21:07.213Z,98578
2018-05-25T10:23:34.238Z,98573
2018-05-25T10:26:01.248Z,98578
2018-05-25T10:28:28.263Z,98577
2018-05-25T10:30:55.344Z,98578
2018-05-25T10:33:22.324Z,98577
2018-05-25T10:35:49.311Z,98577
2018-05-25T10:38:16.288Z,98578
2018-05-25T10:40:43.313Z,98575
2018-05-25T10:43:10.311Z,98573
2018-05-25T10:45:37.371Z,98573
2018-05-25T10:48:04.464Z,98573
2018-05-25T10:50:31.471Z,98574
2018-05-25T10:52:58.503Z,98573
2018-05-25T10:55:27.903Z,98565
2018-05-25T10:57:54.896Z,98575
2018-05-25T11:00:21.947Z,98569
2018-05-25T11:02:48.947Z,98570
2018-05-25T11:05:15.890Z,98567
2018-05-25T11:07:42.931Z,98566
2018-05-25T11:10:09.926Z,98566
2018-05-25T11:12:36.967Z,98542
2018-05-25T11:15:07.866Z,98570
2018-05-25T11:17:34.890Z,98561
2018-05-25T11:20:01.931Z,98566
2018-05-25T11:22:28.934Z,98567
2018-05-25T11:24:55.911Z,98568
2018-05-25T11:27:22.903Z,98564
2018-05-25T11:29:49.889Z,98559
2018-05-25T11:32:16.914Z,98558
2018-05-25T11:34:43.932Z,98552
2018-05-25T11:37:11.651Z,98555
2018-05-25T11:39:38.651Z,98547
2018-05-25T11:42:05.677Z,98553
2018-05-25T11:44:33.521Z,98555
2018-05-25T11:47:00.564Z,98551
2018-05-25T11:49:27.571Z,98554
2018-05-25T11:51:54.577Z,98545
2018-05-25T11:54:21.624Z,98543
2018-05-25T11:56:49.349Z,98544
2018-05-25T11:59:16.311Z,98539
2018-05-25T12:01:43.360Z,98537
2018-05-25T12:04:18.764Z,98537
2018-05-25T12:06:45.880Z,98535
2018-05-25T12:09:12.839Z,98534
2018-05-25T12:11:40.604Z,98537
2018-05-25T12:14:08.325Z,98533
2018-05-25T12:16:35.342Z,98529
2018-05-25T12:19:02.362Z,98532
2018-05-25T12:21:30.127Z,98531
2018-05-25T12:24:00.262Z,98527
2018-05-25T12:26:33.219Z,98519
2018-05-25T12:29:01.002Z,98522
2018-05-25T12:31:28.059Z,98521
2018-05-25T12:33:55.072Z,98521
2018-05-25T12:36:22.087Z,98522
2018-05-25T12:38:49.105Z,98523
2018-05-25T12:41:16.151Z,98522
2018-05-25T12:43:43.157Z,98515
2018-05-25T12:46:10.149Z,98510
2018-05-25T12:48:37.187Z,98504
2018-05-25T12:51:04.324Z,98505
2018-05-25T12:53:32.134Z,98501
2018-05-25T12:56:05.159Z,98498
2018-05-25T12:58:32.186Z,98496
2018-05-25T13:00:59.225Z,98496
2018-05-25T13:03:29.044Z,98499
2018-05-25T13:06:01.956Z,98493
2018-05-25T13:08:29.709Z,98494
2018-05-25T13:10:56.747Z,98489
2018-05-25T13:13:23.839Z,98490
2018-05-25T13:15:50.875Z,98490
2018-05-25T13:18:18.639Z,98486
2018-05-25T13:20:46.426Z,98484
2018-05-25T13:23:13.508Z,98484
2018-05-25T13:25:40.504Z,98487
2018-05-25T13:28:09.161Z,98487
2018-05-25T13:30:36.244Z,98482
2018-05-25T13:33:03.376Z,98474
2018-05-25T13:35:31.111Z,98477
2018-05-25T13:37:58.112Z,98478
2018-05-25T13:40:25.123Z,98480
2018-05-25T13:42:52.091Z,98478
2018-05-25T13:45:19.866Z,98477
2018-05-25T13:47:46.967Z,98473
2018-05-25T13:50:14.001Z,98474
2018-05-25T13:52:40.976Z,98468
2018-05-25T13:55:08.754Z,98465
2018-05-25T13:57:36.509Z,98467
2018-05-25T14:00:03.754Z,98464
2018-05-25T14:02:30.794Z,98463
2018-05-25T14:04:57.806Z,98468
2018-05-25T14:07:24.862Z,98462
2018-05-25T14:09:51.843Z,98461
2018-05-25T14:12:18.886Z,98458
2018-05-25T14:14:45.902Z,98454
2018-05-25T14:17:12.898Z,98450
2018-05-25T14:19:40.606Z,98449
2018-05-25T14:22:07.629Z,98449
2018-05-25T14:24:34.632Z,98447
2018-05-25T14:27:01.619Z,98444
2018-05-25T14:29:28.660Z,98443
2018-05-25T14:31:55.677Z,98440
2018-05-25T14:34:22.695Z,98442
2018-05-25T14:36:49.705Z,98442
2018-05-25T14:39:16.691Z,98440
2018-05-25T14:41:43.684Z,98439
2018-05-25T14:44:10.737Z,98445
2018-05-25T14:46:37.779Z,98439
2018-05-25T14:49:05.594Z,98437
2018-05-25T14:51:32.659Z,98435
2018-05-25T14:53:59.747Z,98436
2018-05-25T14:56:27.885Z,98440
2018-05-25T14:58:54.885Z,98449
2018-05-25T15:01:21.880Z,98445
2018-05-25T15:03:48.892Z,98444
2018-05-25T15:06:16.074Z,98446
2018-05-25T15:08:44.073Z,98438
2018-05-25T15:11:11.201Z,98439
2018-05-25T15:13:44.197Z,98441
2018-05-25T15:16:11.975Z,98440
2018-05-25T15:18:39.735Z,98443
2018-05-25T15:21:07.506Z,98436
2018-05-25T15:23:35.264Z,98440
2018-05-25T15:26:02.293Z,98441
2018-05-25T15:28:29.276Z,98446
2018-05-25T15:30:57.978Z,98447
2018-05-25T15:33:24.979Z,98442
2018-05-25T15:35:58.001Z,98442
2018-05-25T15:38:25.037Z,98442
2018-05-25T15:40:52.813Z,98440
2018-05-25T15:43:19.808Z,98445
2018-05-25T15:45:46.892Z,98442
2018-05-25T15:48:14.641Z,98443
2018-05-25T15:50:41.637Z,98443
2018-05-25T15:53:08.619Z,98451
2018-05-25T15:55:35.619Z,98444
2018-05-25T15:58:02.617Z,98443
2018-05-25T16:00:29.649Z,98441
2018-05-25T16:02:56.692Z,98437
2018-05-25T16:05:23.717Z,98430
2018-05-25T16:07:50.782Z,98433
2018-05-25T16:10:17.774Z,98434
2018-05-25T16:12:51.419Z,98432
2018-05-25T16:15:19.177Z,98435
2018-05-25T16:17:46.197Z,98439
2018-05-25T16:20:13.729Z,98437
2018-05-25T16:22:40.737Z,98439
2018-05-25T16:25:07.732Z,98437
2018-05-25T16:27:34.751Z,98439
2018-05-25T16:30:01.784Z,98444
2018-05-25T16:32:28.811Z,98440
2018-05-25T16:34:55.859Z,98446
2018-05-25T16:37:28.765Z,98453
2018-05-25T16:39:55.754Z,98460
2018-05-25T16:42:28.808Z,98460
2018-05-25T16:44:55.829Z,98465
2018-05-25T16:47:22.836Z,98461
2018-05-25T16:49:49.849Z,98467
2018-05-25T16:52:16.858Z,98460
2018-05-25T16:54:43.880Z,98459
2018-05-25T16:57:10.899Z,98457
2018-05-25T16:59:38.009Z,98474
2018-05-25T17:02:05.037Z,98472
2018-05-25T17:04:32.796Z,98475
2018-05-25T17:06:59.777Z,98464
2018-05-25T17:09:27.521Z,98469
2018-05-25T17:11:55.291Z,98470
2018-05-25T17:14:22.319Z,98474
2018-05-25T17:16:50.059Z,98475
2018-05-25T17:19:17.956Z,98476
2018-05-25T17:21:45.724Z,98478
2018-05-25T17:24:13.536Z,98483
2018-05-25T17:26:46.626Z,98482
2018-05-25T17:29:13.769Z,98489
2018-05-25T17:31:40.929Z,98494
2018-05-25T17:34:07.957Z,98491
2018-05-25T17:36:35.071Z,98494
2018-05-25T17:39:08.788Z,98497
2018-05-25T17:41:35.796Z,98497
2018-05-25T17:44:02.836Z,98502
2018-05-25T17:46:29.837Z,98505
2018-05-25T17:48:56.806Z,98504
2018-05-25T17:51:23.881Z,98504
2018-05-25T17:53:50.904Z,98508
2018-05-25T17:56:17.970Z,98508
2018-05-25T17:58:45.007Z,98506
2018-05-25T18:01:12.034Z,98509
2018-05-25T18:03:39.127Z,98509
2018-05-25T18:06:06.147Z,98514
2018-05-25T18:08:34.885Z,98514
2018-05-25T18:11:02.729Z,98516
2018-05-25T18:13:30.741Z,98520
2018-05-25T18:15:57.799Z,98520
2018-05-25T18:18:30.911Z,98522
2018-05-25T18:20:57.990Z,98525
2018-05-25T18:23:25.081Z,98524
2018-05-25T18:25:52.137Z,98528
2018-05-25T18:28:20.117Z,98534
2018-05-25T18:30:47.171Z,98536
2018-05-25T18:33:14.175Z,98534
2018-05-25T18:35:41.237Z,98545
2018-05-25T18:38:08.358Z,98552
2018-05-25T18:40:42.167Z,98553
2018-05-25T18:43:09.288Z,98556
2018-05-25T18:45:37.233Z,98558
2018-05-25T18:48:06.537Z,98563
2018-05-25T18:50:33.571Z,98568
2018-05-25T18:53:00.560Z,98572
2018-05-25T18:55:27.583Z,98575
2018-05-25T18:57:54.657Z,98581
2018-05-25T19:00:21.775Z,98589
2018-05-25T19:02:54.768Z,98594
2018-05-25T19:05:22.395Z,98595
2018-05-25T19:07:52.565Z,98604
2018-05-25T19:10:19.591Z,98610
2018-05-25T19:12:46.599Z,98615
2018-05-25T19:15:14.404Z,98616
2018-05-25T19:17:42.487Z,98624
2018-05-25T19:20:09.687Z,98628
2018-05-25T19:22:43.450Z,98631
2018-05-25T19:25:10.539Z,98628
2018-05-25T19:27:38.564Z,98633
2018-05-25T19:30:05.622Z,98638
2018-05-25T19:32:32.602Z,98644
2018-05-25T19:34:59.699Z,98645
2018-05-25T19:37:27.117Z,98648
2018-05-25T19:39:54.140Z,98656
2018-05-25T19:42:27.947Z,98658
2018-05-25T19:44:55.821Z,98662
2018-05-25T19:47:23.597Z,98667
2018-05-25T19:49:50.605Z,98674
2018-05-25T19:52:17.644Z,98681
2018-05-25T19:54:44.659Z,98684
2018-05-25T19:57:11.688Z,98684
2018-05-25T19:59:44.736Z,98682
2018-05-25T20:02:11.792Z,98682
2018-05-25T20:04:38.951Z,98683
2018-05-25T20:07:05.967Z,98683
2018-05-25T20:09:32.970Z,98682
2018-05-25T20:12:06.032Z,98686
2018-05-25T20:14:33.041Z,98682
2018-05-25T20:17:00.070Z,98684
2018-05-25T20:19:27.082Z,98685
2018-05-25T20:22:06.904Z,98686
2018-05-25T20:24:33.949Z,98692
2018-05-25T20:27:06.939Z,98695
2018-05-25T20:29:33.915Z,98701
2018-05-25T20:32:01.651Z,98702
2018-05-25T20:34:28.690Z,98702
2018-05-25T20:36:55.727Z,98709
2018-05-25T20:39:22.780Z,98710
2018-05-25T20:41:49.827Z,98706
2018-05-25T20:44:16.876Z,98706
2018-05-25T20:46:50.779Z,98704
2018-05-25T20:49:17.819Z,98705
2018-05-25T20:51:44.832Z,98708
2018-05-25T20:54:12.574Z,98705
2018-05-25T20:56:41.255Z,98704
2018-05-25T20:59:08.296Z,98713
2018-05-25T21:01:35.299Z,98715
2018-05-25T21:04:02.353Z,98718
2018-05-25T21:06:29.362Z,98719
2018-05-25T21:08:56.359Z,98717
2018-05-25T21:11:23.371Z,98717
2018-05-25T21:13:50.495Z,98717
2018-05-25T21:16:17.494Z,98716
2018-05-25T21:18:44.544Z,98719
2018-05-25T21:21:17.510Z,98720
2018-05-25T21:23:44.537Z,98727
2018-05-25T21:26:11.594Z,98722
2018-05-25T21:28:38.603Z,98725
2018-05-25T21:31:05.596Z,98728
2018-05-25T21:33:32.607Z,98728
2018-05-25T21:36:00.401Z,98728
2018-05-25T21:38:33.452Z,98731
2018-05-25T21:41:00.511Z,98736
2018-05-25T21:43:27.521Z,98736
2018-05-25T21:45:54.529Z,98736
2018-05-25T21:48:21.516Z,98735
2018-05-25T21:50:48.559Z,98733
2018-05-25T21:53:15.551Z,98738
2018-05-25T21:55:42.586Z,98741
2018-05-25T21:58:09.622Z,98739
2018-05-25T22:00:48.852Z,98745
2018-05-25T22:03:15.877Z,98743
2018-05-25T22:05:42.905Z,98749
2018-05-25T22:08:15.970Z,98752
2018-05-25T22:10:43.015Z,98752
2018-05-25T22:13:10.770Z,98748
2018-05-25T22:15:38.499Z,98749
2018-05-25T22:18:05.547Z,98745
2018-05-25T22:20:32.567Z,98748
2018-05-25T22:22:59.580Z,98752
2018-05-25T22:25:33.156Z,98753
2018-05-25T22:28:00.173Z,98753
2018-05-25T22:30:27.187Z,98756
2018-05-25T22:32:54.198Z,98761
2018-05-25T22:35:21.312Z,98756
2018-05-25T22:37:48.298Z,98754
2018-05-25T22:40:15.274Z,98753
2018-05-25T22:43:00.295Z,98755
2018-05-25T22:45:45.972Z,98753
2018-05-25T22:48:31.281Z,98747
2018-05-25T22:51:16.424Z,98751
2018-05-25T22:53:48.831Z,98754
2018-05-25T22:56:22.689Z,98752
2018-05-25T22:58:49.694Z,98751
2018-05-25T23:01:16.729Z,98755
2018-05-25T23:03:43.759Z,98756
2018-05-25T23:06:11.524Z,98760
2018-05-25T23:08:38.491Z,98756
2018-05-25T23:11:06.252Z,98752
2018-05-25T23:13:33.246Z,98750
2018-05-25T23:16:00.230Z,98756
2018-05-25T23:18:27.273Z,98751
2018-05-25T23:20:54.343Z,98754
2018-05-25T23:23:21.396Z,98755
2018-05-25T23:25:49.156Z,98754
2018-05-25T23:28:16.925Z,98754
2018-05-25T23:30:44.686Z,98754
2018-05-25T23:33:12.466Z,98758
2018-05-25T23:35:39.446Z,98763
2018-05-25T23:38:06.426Z,98764
2018-05-25T23:40:33.431Z,98763
2018-05-25T23:43:00.500Z,98762
2018-05-25T23:45:27.509Z,98764
2018-05-25T23:47:54.457Z,98760
2018-05-25T23:50:21.409Z,98757
2018-05-25T23:52:48.382Z,98757
2018-05-25T23:55:15.429Z,98755
2018-05-25T23:57:42.407Z,98755
